sensor_id;sensor_type;location;lat;lon;timestamp;pressure;altitude;pressure_sealevel;temperature;humidity
36190;BME280;22232;50.914;13.858;2023-04-28T00:00:36;98042.78;;;5.41;99.85
36190;BME280;22232;50.914;13.858;2023-04-28T00:03:04;98034.63;;;5.36;99.83
36190;BME280;22232;50.914;13.858;2023-04-28T00:05:32;98038.25;;;5.35;100.00
36190;BME280;22232;50.914;13.858;2023-04-28T00:07:59;98025.84;;;5.35;99.79
36190;BME280;22232;50.914;13.858;2023-04-28T00:10:27;98027.06;;;5.33;100.00
36190;BME280;22232;50.914;13.858;2023-04-28T00:12:54;98023.41;;;5.34;100.00
36190;BME280;22232;50.914;13.858;2023-04-28T00:15:22;98024.66;;;5.38;100.00
36190;BME280;22232;50.914;13.858;2023-04-28T00:17:49;98027.28;;;5.38;100.00
36190;BME280;22232;50.914;13.858;2023-04-28T00:20:17;98021.94;;;5.31;99.92
36190;BME280;22232;50.914;13.858;2023-04-28T00:22:45;98023.00;;;5.37;100.00
36190;BME280;22232;50.914;13.858;2023-04-28T00:25:12;98021.00;;;5.39;100.00
36190;BME280;22232;50.914;13.858;2023-04-28T00:27:40;98023.88;;;5.44;99.98
36190;BME280;22232;50.914;13.858;2023-04-28T00:30:08;98025.91;;;5.42;100.00
36190;BME280;22232;50.914;13.858;2023-04-28T00:32:35;98019.59;;;5.43;100.00
36190;BME280;22232;50.914;13.858;2023-04-28T00:35:03;98017.97;;;5.42;100.00
36190;BME280;22232;50.914;13.858;2023-04-28T00:37:35;98017.91;;;5.35;100.00
36190;BME280;22232;50.914;13.858;2023-04-28T00:40:03;98010.19;;;5.34;100.00
36190;BME280;22232;50.914;13.858;2023-04-28T00:42:30;98009.38;;;5.33;100.00
36190;BME280;22232;50.914;13.858;2023-04-28T00:44:58;98002.59;;;5.24;100.00
36190;BME280;22232;50.914;13.858;2023-04-28T00:47:35;98002.13;;;5.20;100.00
36190;BME280;22232;50.914;13.858;2023-04-28T00:50:04;97991.53;;;5.20;100.00
36190;BME280;22232;50.914;13.858;2023-04-28T00:52:37;97981.13;;;5.12;100.00
36190;BME280;22232;50.914;13.858;2023-04-28T00:55:07;97985.22;;;5.15;100.00
36190;BME280;22232;50.914;13.858;2023-04-28T00:57:35;97978.63;;;5.32;100.00
36190;BME280;22232;50.914;13.858;2023-04-28T01:00:03;97975.19;;;5.38;100.00
36190;BME280;22232;50.914;13.858;2023-04-28T01:02:31;97976.44;;;5.36;100.00
36190;BME280;22232;50.914;13.858;2023-04-28T01:05:00;97966.84;;;5.35;100.00
36190;BME280;22232;50.914;13.858;2023-04-28T01:07:28;97962.19;;;5.37;100.00
36190;BME280;22232;50.914;13.858;2023-04-28T01:09:56;97960.31;;;5.31;100.00
36190;BME280;22232;50.914;13.858;2023-04-28T01:12:29;97962.53;;;5.27;99.02
36190;BME280;22232;50.914;13.858;2023-04-28T01:14:58;97961.94;;;5.32;98.05
36190;BME280;22232;50.914;13.858;2023-04-28T01:17:27;97956.47;;;5.33;97.98
36190;BME280;22232;50.914;13.858;2023-04-28T01:19:55;97964.59;;;5.32;99.16
36190;BME280;22232;50.914;13.858;2023-04-28T01:22:22;97955.16;;;5.22;100.00
36190;BME280;22232;50.914;13.858;2023-04-28T01:24:50;97946.59;;;5.20;99.72
36190;BME280;22232;50.914;13.858;2023-04-28T01:27:17;97949.34;;;5.05;100.00
36190;BME280;22232;50.914;13.858;2023-04-28T01:29:45;97950.16;;;5.06;100.00
36190;BME280;22232;50.914;13.858;2023-04-28T01:32:12;97943.44;;;5.03;100.00
36190;BME280;22232;50.914;13.858;2023-04-28T01:34:40;97944.34;;;4.89;100.00
36190;BME280;22232;50.914;13.858;2023-04-28T01:37:07;97944.97;;;4.91;100.00
36190;BME280;22232;50.914;13.858;2023-04-28T01:39:36;97934.94;;;4.87;100.00
36190;BME280;22232;50.914;13.858;2023-04-28T01:42:04;97933.16;;;4.87;100.00
36190;BME280;22232;50.914;13.858;2023-04-28T01:44:32;97923.63;;;4.93;100.00
36190;BME280;22232;50.914;13.858;2023-04-28T01:47:00;97925.03;;;4.67;100.00
36190;BME280;22232;50.914;13.858;2023-04-28T01:49:28;97925.53;;;4.56;100.00
36190;BME280;22232;50.914;13.858;2023-04-28T01:51:55;97926.69;;;4.47;100.00
36190;BME280;22232;50.914;13.858;2023-04-28T01:54:22;97920.09;;;4.57;100.00
36190;BME280;22232;50.914;13.858;2023-04-28T01:56:50;97917.88;;;4.61;100.00
36190;BME280;22232;50.914;13.858;2023-04-28T01:59:19;97916.44;;;4.58;100.00
36190;BME280;22232;50.914;13.858;2023-04-28T02:01:47;97917.13;;;4.67;100.00
36190;BME280;22232;50.914;13.858;2023-04-28T02:04:15;97918.13;;;4.66;100.00
36190;BME280;22232;50.914;13.858;2023-04-28T02:06:43;97920.41;;;4.69;100.00
36190;BME280;22232;50.914;13.858;2023-04-28T02:09:13;97918.69;;;4.62;100.00
36190;BME280;22232;50.914;13.858;2023-04-28T02:11:41;97914.09;;;4.70;100.00
36190;BME280;22232;50.914;13.858;2023-04-28T02:14:08;97920.06;;;4.79;100.00
36190;BME280;22232;50.914;13.858;2023-04-28T02:16:36;97918.09;;;4.88;100.00
36190;BME280;22232;50.914;13.858;2023-04-28T02:19:03;97917.97;;;4.74;100.00
36190;BME280;22232;50.914;13.858;2023-04-28T02:21:31;97913.72;;;4.73;100.00
36190;BME280;22232;50.914;13.858;2023-04-28T02:23:59;97910.00;;;4.68;100.00
36190;BME280;22232;50.914;13.858;2023-04-28T02:26:26;97900.06;;;4.70;100.00
36190;BME280;22232;50.914;13.858;2023-04-28T02:28:54;97902.66;;;4.63;100.00
36190;BME280;22232;50.914;13.858;2023-04-28T02:31:21;97900.03;;;4.63;100.00
36190;BME280;22232;50.914;13.858;2023-04-28T02:33:49;97897.25;;;4.50;100.00
36190;BME280;22232;50.914;13.858;2023-04-28T02:36:17;97897.25;;;4.50;100.00
36190;BME280;22232;50.914;13.858;2023-04-28T02:38:44;97890.34;;;4.49;100.00
36190;BME280;22232;50.914;13.858;2023-04-28T02:41:12;97895.19;;;4.45;100.00
36190;BME280;22232;50.914;13.858;2023-04-28T02:43:41;97884.19;;;4.42;100.00
36190;BME280;22232;50.914;13.858;2023-04-28T02:46:08;97891.47;;;4.40;100.00
36190;BME280;22232;50.914;13.858;2023-04-28T02:48:37;97889.09;;;4.45;100.00
36190;BME280;22232;50.914;13.858;2023-04-28T02:51:04;97887.69;;;4.49;100.00
36190;BME280;22232;50.914;13.858;2023-04-28T02:53:33;97874.66;;;4.47;100.00
36190;BME280;22232;50.914;13.858;2023-04-28T02:56:01;97880.78;;;4.48;100.00
36190;BME280;22232;50.914;13.858;2023-04-28T02:58:32;97876.13;;;4.50;100.00
36190;BME280;22232;50.914;13.858;2023-04-28T03:00:59;97874.63;;;4.41;100.00
36190;BME280;22232;50.914;13.858;2023-04-28T03:03:27;97859.78;;;4.40;100.00
36190;BME280;22232;50.914;13.858;2023-04-28T03:05:55;97864.06;;;4.41;100.00
36190;BME280;22232;50.914;13.858;2023-04-28T03:08:23;97864.09;;;4.47;100.00
36190;BME280;22232;50.914;13.858;2023-04-28T03:10:52;97863.56;;;4.52;100.00
36190;BME280;22232;50.914;13.858;2023-04-28T03:13:20;97861.34;;;4.55;100.00
36190;BME280;22232;50.914;13.858;2023-04-28T03:15:48;97855.88;;;4.57;100.00
36190;BME280;22232;50.914;13.858;2023-04-28T03:18:16;97852.66;;;4.62;100.00
36190;BME280;22232;50.914;13.858;2023-04-28T03:20:44;97864.91;;;4.69;100.00
36190;BME280;22232;50.914;13.858;2023-04-28T03:23:12;97855.03;;;4.78;100.00
36190;BME280;22232;50.914;13.858;2023-04-28T03:25:40;97847.75;;;4.87;100.00
36190;BME280;22232;50.914;13.858;2023-04-28T03:28:08;97842.06;;;4.90;100.00
36190;BME280;22232;50.914;13.858;2023-04-28T03:30:36;97841.91;;;4.91;100.00
36190;BME280;22232;50.914;13.858;2023-04-28T03:33:04;97841.91;;;4.91;100.00
36190;BME280;22232;50.914;13.858;2023-04-28T03:35:32;97843.31;;;4.87;100.00
36190;BME280;22232;50.914;13.858;2023-04-28T03:37:59;97830.66;;;4.82;100.00
36190;BME280;22232;50.914;13.858;2023-04-28T03:40:26;97835.13;;;4.82;100.00
36190;BME280;22232;50.914;13.858;2023-04-28T03:43:12;97834.50;;;4.80;100.00
36190;BME280;22232;50.914;13.858;2023-04-28T03:46:00;97845.16;;;4.93;100.00
36190;BME280;22232;50.914;13.858;2023-04-28T03:48:28;97840.31;;;4.97;100.00
36190;BME280;22232;50.914;13.858;2023-04-28T03:50:55;97836.88;;;5.03;100.00
36190;BME280;22232;50.914;13.858;2023-04-28T03:53:24;97833.06;;;5.12;100.00
36190;BME280;22232;50.914;13.858;2023-04-28T03:55:52;97830.50;;;5.25;100.00
36190;BME280;22232;50.914;13.858;2023-04-28T03:58:20;97824.69;;;5.43;100.00
36190;BME280;22232;50.914;13.858;2023-04-28T04:00:47;97826.75;;;5.55;100.00
36190;BME280;22232;50.914;13.858;2023-04-28T04:03:15;97831.84;;;5.63;100.00
36190;BME280;22232;50.914;13.858;2023-04-28T04:05:43;97831.91;;;5.69;100.00
36190;BME280;22232;50.914;13.858;2023-04-28T04:08:11;97832.50;;;5.71;100.00
36190;BME280;22232;50.914;13.858;2023-04-28T04:10:38;97841.06;;;5.73;100.00
36190;BME280;22232;50.914;13.858;2023-04-28T04:13:06;97837.00;;;5.78;100.00
36190;BME280;22232;50.914;13.858;2023-04-28T04:15:34;97829.28;;;5.83;100.00
36190;BME280;22232;50.914;13.858;2023-04-28T04:18:03;97822.56;;;5.87;100.00
36190;BME280;22232;50.914;13.858;2023-04-28T04:20:46;97826.50;;;5.97;100.00
36190;BME280;22232;50.914;13.858;2023-04-28T04:23:16;97818.38;;;6.12;100.00
36190;BME280;22232;50.914;13.858;2023-04-28T04:25:43;97813.31;;;6.24;100.00
36190;BME280;22232;50.914;13.858;2023-04-28T04:28:11;97811.06;;;6.34;100.00
36190;BME280;22232;50.914;13.858;2023-04-28T04:30:39;97805.75;;;6.48;100.00
36190;BME280;22232;50.914;13.858;2023-04-28T04:33:06;97809.41;;;6.60;100.00
36190;BME280;22232;50.914;13.858;2023-04-28T04:35:34;97793.13;;;6.70;100.00
36190;BME280;22232;50.914;13.858;2023-04-28T04:38:02;97792.88;;;6.78;100.00
36190;BME280;22232;50.914;13.858;2023-04-28T04:40:30;97791.03;;;6.92;100.00
36190;BME280;22232;50.914;13.858;2023-04-28T04:42:59;97795.47;;;7.11;100.00
36190;BME280;22232;50.914;13.858;2023-04-28T04:45:29;97796.25;;;7.18;100.00
36190;BME280;22232;50.914;13.858;2023-04-28T04:47:57;97791.94;;;7.24;100.00
36190;BME280;22232;50.914;13.858;2023-04-28T04:50:24;97791.53;;;7.27;100.00
36190;BME280;22232;50.914;13.858;2023-04-28T04:52:53;97787.69;;;7.23;100.00
36190;BME280;22232;50.914;13.858;2023-04-28T04:55:23;97787.09;;;7.14;100.00
36190;BME280;22232;50.914;13.858;2023-04-28T04:57:51;97780.38;;;7.05;100.00
36190;BME280;22232;50.914;13.858;2023-04-28T05:00:28;97782.00;;;7.06;100.00
36190;BME280;22232;50.914;13.858;2023-04-28T05:02:55;97776.31;;;7.02;100.00
36190;BME280;22232;50.914;13.858;2023-04-28T05:05:24;97778.34;;;7.07;100.00
36190;BME280;22232;50.914;13.858;2023-04-28T05:08:12;97783.00;;;7.18;100.00
36190;BME280;22232;50.914;13.858;2023-04-28T05:10:40;97779.09;;;7.27;100.00
36190;BME280;22232;50.914;13.858;2023-04-28T05:13:08;97774.34;;;7.36;100.00
36190;BME280;22232;50.914;13.858;2023-04-28T05:15:35;97774.16;;;7.38;100.00
36190;BME280;22232;50.914;13.858;2023-04-28T05:18:22;97765.19;;;7.32;100.00
36190;BME280;22232;50.914;13.858;2023-04-28T05:20:49;97765.31;;;7.50;100.00
36190;BME280;22232;50.914;13.858;2023-04-28T05:23:18;97767.88;;;7.64;100.00
36190;BME280;22232;50.914;13.858;2023-04-28T05:25:47;97764.13;;;7.78;100.00
36190;BME280;22232;50.914;13.858;2023-04-28T05:28:14;97763.09;;;7.86;100.00
36190;BME280;22232;50.914;13.858;2023-04-28T05:30:43;97758.72;;;7.98;100.00
36190;BME280;22232;50.914;13.858;2023-04-28T05:33:12;97752.22;;;8.19;100.00
36190;BME280;22232;50.914;13.858;2023-04-28T05:35:41;97755.75;;;8.38;100.00
36190;BME280;22232;50.914;13.858;2023-04-28T05:38:08;97748.47;;;8.52;100.00
36190;BME280;22232;50.914;13.858;2023-04-28T05:40:36;97745.66;;;8.71;100.00
36190;BME280;22232;50.914;13.858;2023-04-28T05:43:04;97744.03;;;8.89;100.00
36190;BME280;22232;50.914;13.858;2023-04-28T05:45:31;97738.63;;;9.14;98.57
36190;BME280;22232;50.914;13.858;2023-04-28T05:47:59;97749.19;;;9.69;92.60
36190;BME280;22232;50.914;13.858;2023-04-28T05:50:27;97737.13;;;10.08;89.63
36190;BME280;22232;50.914;13.858;2023-04-28T05:52:54;97734.97;;;10.17;88.98
36190;BME280;22232;50.914;13.858;2023-04-28T05:55:23;97736.75;;;10.35;84.86
36190;BME280;22232;50.914;13.858;2023-04-28T05:57:52;97737.78;;;10.46;86.83
36190;BME280;22232;50.914;13.858;2023-04-28T06:00:21;97740.13;;;10.66;83.52
36190;BME280;22232;50.914;13.858;2023-04-28T06:02:52;97735.94;;;11.62;81.79
36190;BME280;22232;50.914;13.858;2023-04-28T06:05:21;97741.09;;;12.43;66.47
36190;BME280;22232;50.914;13.858;2023-04-28T06:07:51;97740.59;;;12.29;63.71
36190;BME280;22232;50.914;13.858;2023-04-28T06:10:22;97737.34;;;12.10;71.54
36190;BME280;22232;50.914;13.858;2023-04-28T06:12:49;97747.38;;;12.03;74.62
36190;BME280;22232;50.914;13.858;2023-04-28T06:15:17;97744.91;;;12.30;77.05
36190;BME280;22232;50.914;13.858;2023-04-28T06:17:44;97751.94;;;12.53;70.64
36190;BME280;22232;50.914;13.858;2023-04-28T06:20:12;97743.44;;;12.39;72.05
36190;BME280;22232;50.914;13.858;2023-04-28T06:22:40;97747.88;;;12.00;70.49
36190;BME280;22232;50.914;13.858;2023-04-28T06:25:08;97755.25;;;12.10;71.61
36190;BME280;22232;50.914;13.858;2023-04-28T06:27:44;97738.91;;;12.40;68.50
36190;BME280;22232;50.914;13.858;2023-04-28T06:30:19;97749.66;;;12.28;63.29
36190;BME280;22232;50.914;13.858;2023-04-28T06:32:47;97743.41;;;12.56;65.36
36190;BME280;22232;50.914;13.858;2023-04-28T06:35:15;97747.50;;;12.81;65.04
36190;BME280;22232;50.914;13.858;2023-04-28T06:37:42;97733.13;;;12.87;71.82
36190;BME280;22232;50.914;13.858;2023-04-28T06:40:10;97733.13;;;12.87;67.01
36190;BME280;22232;50.914;13.858;2023-04-28T06:42:42;97736.78;;;12.98;70.08
36190;BME280;22232;50.914;13.858;2023-04-28T06:45:12;97731.78;;;12.84;67.97
36190;BME280;22232;50.914;13.858;2023-04-28T06:47:40;97731.03;;;12.89;68.16
36190;BME280;22232;50.914;13.858;2023-04-28T06:50:08;97732.09;;;12.88;64.23
36190;BME280;22232;50.914;13.858;2023-04-28T06:52:36;97735.59;;;12.89;65.40
36190;BME280;22232;50.914;13.858;2023-04-28T06:55:07;97741.44;;;12.85;63.67
36190;BME280;22232;50.914;13.858;2023-04-28T06:57:35;97730.63;;;12.97;63.17
36190;BME280;22232;50.914;13.858;2023-04-28T07:00:05;97734.69;;;13.00;63.15
36190;BME280;22232;50.914;13.858;2023-04-28T07:02:32;97726.88;;;12.98;60.38
36190;BME280;22232;50.914;13.858;2023-04-28T07:05:00;97720.22;;;13.01;61.57
36190;BME280;22232;50.914;13.858;2023-04-28T07:07:28;97724.59;;;13.07;61.11
36190;BME280;22232;50.914;13.858;2023-04-28T07:09:55;97716.84;;;13.11;58.74
36190;BME280;22232;50.914;13.858;2023-04-28T07:12:23;97716.25;;;13.03;61.29
36190;BME280;22232;50.914;13.858;2023-04-28T07:14:51;97709.81;;;12.82;70.26
36190;BME280;22232;50.914;13.858;2023-04-28T07:17:18;97707.94;;;13.05;64.00
36190;BME280;22232;50.914;13.858;2023-04-28T07:19:46;97717.78;;;12.99;64.24
36190;BME280;22232;50.914;13.858;2023-04-28T07:22:13;97706.16;;;13.11;61.56
36190;BME280;22232;50.914;13.858;2023-04-28T07:24:41;97706.81;;;13.23;63.75
36190;BME280;22232;50.914;13.858;2023-04-28T07:27:08;97700.81;;;13.87;62.74
36190;BME280;22232;50.914;13.858;2023-04-28T07:29:36;97696.97;;;14.05;61.36
36190;BME280;22232;50.914;13.858;2023-04-28T07:32:04;97701.22;;;14.00;59.89
36190;BME280;22232;50.914;13.858;2023-04-28T07:34:35;97702.31;;;14.05;59.30
36190;BME280;22232;50.914;13.858;2023-04-28T07:37:04;97700.84;;;14.19;60.53
36190;BME280;22232;50.914;13.858;2023-04-28T07:39:33;97704.06;;;14.21;62.62
36190;BME280;22232;50.914;13.858;2023-04-28T07:42:01;97698.97;;;14.19;60.45
36190;BME280;22232;50.914;13.858;2023-04-28T07:44:30;97699.19;;;14.50;58.99
36190;BME280;22232;50.914;13.858;2023-04-28T07:46:59;97699.38;;;14.38;59.20
36190;BME280;22232;50.914;13.858;2023-04-28T07:49:27;97691.81;;;14.73;58.79
36190;BME280;22232;50.914;13.858;2023-04-28T07:51:55;97686.25;;;14.79;53.72
36190;BME280;22232;50.914;13.858;2023-04-28T07:54:23;97685.25;;;14.96;53.25
36190;BME280;22232;50.914;13.858;2023-04-28T07:56:51;97684.72;;;14.99;51.21
36190;BME280;22232;50.914;13.858;2023-04-28T07:59:18;97679.06;;;15.00;52.11
36190;BME280;22232;50.914;13.858;2023-04-28T08:01:46;97692.00;;;14.56;51.19
36190;BME280;22232;50.914;13.858;2023-04-28T08:04:13;97679.53;;;14.39;52.52
36190;BME280;22232;50.914;13.858;2023-04-28T08:06:42;97682.34;;;14.55;54.65
36190;BME280;22232;50.914;13.858;2023-04-28T08:09:09;97681.84;;;14.63;51.95
36190;BME280;22232;50.914;13.858;2023-04-28T08:11:37;97674.81;;;14.52;53.20
36190;BME280;22232;50.914;13.858;2023-04-28T08:14:05;97670.53;;;14.56;52.28
36190;BME280;22232;50.914;13.858;2023-04-28T08:16:32;97663.97;;;14.84;52.77
36190;BME280;22232;50.914;13.858;2023-04-28T08:19:03;97670.22;;;15.00;50.88
36190;BME280;22232;50.914;13.858;2023-04-28T08:21:30;97659.34;;;15.37;51.99
36190;BME280;22232;50.914;13.858;2023-04-28T08:23:59;97661.19;;;15.36;51.17
36190;BME280;22232;50.914;13.858;2023-04-28T08:26:26;97657.25;;;15.70;49.57
36190;BME280;22232;50.914;13.858;2023-04-28T08:28:54;97658.34;;;15.94;49.08
36190;BME280;22232;50.914;13.858;2023-04-28T08:31:21;97664.25;;;16.22;50.52
36190;BME280;22232;50.914;13.858;2023-04-28T08:33:50;97665.88;;;15.72;48.23
36190;BME280;22232;50.914;13.858;2023-04-28T08:36:17;97663.75;;;15.89;50.72
36190;BME280;22232;50.914;13.858;2023-04-28T08:38:45;97666.09;;;15.60;49.30
36190;BME280;22232;50.914;13.858;2023-04-28T08:41:16;97667.22;;;15.69;48.74
36190;BME280;22232;50.914;13.858;2023-04-28T08:43:44;97662.09;;;15.73;50.23
36190;BME280;22232;50.914;13.858;2023-04-28T08:46:13;97674.94;;;15.50;48.57
36190;BME280;22232;50.914;13.858;2023-04-28T08:48:42;97673.50;;;15.17;48.93
36190;BME280;22232;50.914;13.858;2023-04-28T08:51:22;97660.31;;;15.10;49.25
36190;BME280;22232;50.914;13.858;2023-04-28T08:53:53;97655.50;;;15.12;50.37
36190;BME280;22232;50.914;13.858;2023-04-28T08:56:23;97656.25;;;15.03;48.32
36190;BME280;22232;50.914;13.858;2023-04-28T08:58:53;97660.88;;;15.18;49.63
36190;BME280;22232;50.914;13.858;2023-04-28T09:01:21;97653.56;;;14.98;49.34
36190;BME280;22232;50.914;13.858;2023-04-28T09:03:53;97657.72;;;15.31;50.24
36190;BME280;22232;50.914;13.858;2023-04-28T09:06:21;97653.94;;;15.32;51.03
36190;BME280;22232;50.914;13.858;2023-04-28T09:08:49;97655.50;;;15.18;48.89
36190;BME280;22232;50.914;13.858;2023-04-28T09:11:16;97643.47;;;15.35;48.99
36190;BME280;22232;50.914;13.858;2023-04-28T09:13:45;97657.97;;;15.40;48.67
36190;BME280;22232;50.914;13.858;2023-04-28T09:16:13;97644.56;;;15.55;49.40
36190;BME280;22232;50.914;13.858;2023-04-28T09:18:54;97638.94;;;15.62;47.67
36190;BME280;22232;50.914;13.858;2023-04-28T09:21:23;97634.13;;;15.94;48.32
36190;BME280;22232;50.914;13.858;2023-04-28T09:23:50;97641.66;;;16.13;48.61
36190;BME280;22232;50.914;13.858;2023-04-28T09:26:18;97638.97;;;16.18;47.59
36190;BME280;22232;50.914;13.858;2023-04-28T09:28:45;97636.47;;;16.57;48.62
36190;BME280;22232;50.914;13.858;2023-04-28T09:31:23;97638.00;;;16.89;47.77
36190;BME280;22232;50.914;13.858;2023-04-28T09:33:58;97635.00;;;17.06;46.35
36190;BME280;22232;50.914;13.858;2023-04-28T09:36:27;97626.19;;;17.34;46.04
36190;BME280;22232;50.914;13.858;2023-04-28T09:38:59;97634.13;;;17.15;45.79
36190;BME280;22232;50.914;13.858;2023-04-28T09:41:43;97630.47;;;17.40;45.41
36190;BME280;22232;50.914;13.858;2023-04-28T09:44:13;97633.47;;;17.39;45.25
36190;BME280;22232;50.914;13.858;2023-04-28T09:46:45;97630.13;;;17.57;45.71
36190;BME280;22232;50.914;13.858;2023-04-28T09:49:13;97627.19;;;17.49;45.24
36190;BME280;22232;50.914;13.858;2023-04-28T09:51:41;97626.41;;;17.48;46.10
36190;BME280;22232;50.914;13.858;2023-04-28T09:54:09;97624.63;;;17.28;46.45
36190;BME280;22232;50.914;13.858;2023-04-28T09:56:40;97626.16;;;17.45;46.07
36190;BME280;22232;50.914;13.858;2023-04-28T09:59:08;97620.22;;;17.42;45.26
36190;BME280;22232;50.914;13.858;2023-04-28T10:01:37;97613.88;;;17.23;46.53
36190;BME280;22232;50.914;13.858;2023-04-28T10:04:07;97611.69;;;16.60;45.64
36190;BME280;22232;50.914;13.858;2023-04-28T10:06:35;97617.94;;;16.56;47.34
36190;BME280;22232;50.914;13.858;2023-04-28T10:09:06;97615.78;;;16.52;46.68
36190;BME280;22232;50.914;13.858;2023-04-28T10:11:34;97614.53;;;16.04;46.84
36190;BME280;22232;50.914;13.858;2023-04-28T10:14:03;97619.09;;;15.93;47.86
36190;BME280;22232;50.914;13.858;2023-04-28T10:16:31;97613.94;;;15.66;47.41
36190;BME280;22232;50.914;13.858;2023-04-28T10:19:00;97614.53;;;15.68;48.90
36190;BME280;22232;50.914;13.858;2023-04-28T10:21:34;97615.78;;;15.35;48.24
36190;BME280;22232;50.914;13.858;2023-04-28T10:24:14;97625.69;;;15.19;48.78
36190;BME280;22232;50.914;13.858;2023-04-28T10:29:27;97632.25;;;14.76;51.23
36190;BME280;22232;50.914;13.858;2023-04-28T10:32:21;97626.91;;;14.38;54.76
36190;BME280;22232;50.914;13.858;2023-04-28T10:34:50;97629.28;;;14.30;55.26
36190;BME280;22232;50.914;13.858;2023-04-28T10:37:19;97638.06;;;14.20;57.03
36190;BME280;22232;50.914;13.858;2023-04-28T10:42:55;97634.16;;;13.95;60.41
36190;BME280;22232;50.914;13.858;2023-04-28T10:48:20;97625.75;;;13.82;65.83
36190;BME280;22232;50.914;13.858;2023-04-28T10:58:38;97638.53;;;13.47;70.75
36190;BME280;22232;50.914;13.858;2023-04-28T11:03:56;97642.25;;;13.41;82.35
36190;BME280;22232;50.914;13.858;2023-04-28T11:06:31;97644.03;;;13.30;87.25
36190;BME280;22232;50.914;13.858;2023-04-28T11:11:39;97644.81;;;13.09;87.63
36190;BME280;22232;50.914;13.858;2023-04-28T11:19:19;97649.47;;;12.75;95.38
36190;BME280;22232;50.914;13.858;2023-04-28T11:21:48;97641.59;;;12.85;98.40
36190;BME280;22232;50.914;13.858;2023-04-28T11:24:15;97646.88;;;12.80;100.00
36190;BME280;22232;50.914;13.858;2023-04-28T11:26:43;97648.34;;;12.49;98.91
36190;BME280;22232;50.914;13.858;2023-04-28T11:29:11;97644.47;;;12.39;100.00
36190;BME280;22232;50.914;13.858;2023-04-28T11:31:48;97651.72;;;12.22;100.00
36190;BME280;22232;50.914;13.858;2023-04-28T11:34:20;97658.03;;;12.16;100.00
36190;BME280;22232;50.914;13.858;2023-04-28T11:36:48;97662.09;;;12.19;100.00
36190;BME280;22232;50.914;13.858;2023-04-28T11:39:28;97659.28;;;11.80;100.00
36190;BME280;22232;50.914;13.858;2023-04-28T11:41:58;97653.38;;;11.61;100.00
36190;BME280;22232;50.914;13.858;2023-04-28T11:44:29;97654.97;;;11.62;100.00
36190;BME280;22232;50.914;13.858;2023-04-28T11:46:58;97644.28;;;11.45;100.00
36190;BME280;22232;50.914;13.858;2023-04-28T11:49:31;97652.78;;;11.42;100.00
36190;BME280;22232;50.914;13.858;2023-04-28T11:52:04;97649.34;;;11.30;100.00
36190;BME280;22232;50.914;13.858;2023-04-28T11:54:33;97650.25;;;11.35;100.00
36190;BME280;22232;50.914;13.858;2023-04-28T11:57:01;97657.72;;;11.50;100.00
36190;BME280;22232;50.914;13.858;2023-04-28T11:59:35;97662.78;;;11.63;100.00
36190;BME280;22232;50.914;13.858;2023-04-28T12:02:06;97654.59;;;11.70;100.00
36190;BME280;22232;50.914;13.858;2023-04-28T12:04:38;97656.06;;;11.78;100.00
36190;BME280;22232;50.914;13.858;2023-04-28T12:07:12;97649.34;;;11.75;100.00
36190;BME280;22232;50.914;13.858;2023-04-28T12:09:45;97652.44;;;11.84;100.00
36190;BME280;22232;50.914;13.858;2023-04-28T12:12:15;97647.22;;;11.77;100.00
36190;BME280;22232;50.914;13.858;2023-04-28T12:14:59;97640.09;;;11.83;100.00
36190;BME280;22232;50.914;13.858;2023-04-28T12:17:30;97634.97;;;11.93;100.00
36190;BME280;22232;50.914;13.858;2023-04-28T12:20:01;97634.63;;;12.06;100.00
36190;BME280;22232;50.914;13.858;2023-04-28T12:22:29;97644.66;;;12.16;100.00
36190;BME280;22232;50.914;13.858;2023-04-28T12:25:05;97641.59;;;12.07;100.00
36190;BME280;22232;50.914;13.858;2023-04-28T12:27:38;97645.56;;;12.22;100.00
36190;BME280;22232;50.914;13.858;2023-04-28T12:32:47;97636.97;;;12.20;100.00
36190;BME280;22232;50.914;13.858;2023-04-28T12:35:15;97635.44;;;12.24;100.00
36190;BME280;22232;50.914;13.858;2023-04-28T12:37:43;97628.75;;;12.26;100.00
36190;BME280;22232;50.914;13.858;2023-04-28T12:40:11;97624.75;;;12.24;100.00
36190;BME280;22232;50.914;13.858;2023-04-28T12:42:39;97624.00;;;12.50;100.00
36190;BME280;22232;50.914;13.858;2023-04-28T12:45:06;97627.63;;;12.39;100.00
36190;BME280;22232;50.914;13.858;2023-04-28T12:47:36;97626.34;;;12.25;100.00
36190;BME280;22232;50.914;13.858;2023-04-28T12:50:05;97629.59;;;12.27;100.00
36190;BME280;22232;50.914;13.858;2023-04-28T12:52:33;97625.72;;;12.18;100.00
36190;BME280;22232;50.914;13.858;2023-04-28T12:55:02;97631.28;;;12.16;100.00
36190;BME280;22232;50.914;13.858;2023-04-28T12:57:30;97622.72;;;11.97;100.00
36190;BME280;22232;50.914;13.858;2023-04-28T12:59:57;97620.63;;;11.99;100.00
36190;BME280;22232;50.914;13.858;2023-04-28T13:02:25;97620.19;;;12.07;100.00
36190;BME280;22232;50.914;13.858;2023-04-28T13:04:53;97624.94;;;11.71;100.00
36190;BME280;22232;50.914;13.858;2023-04-28T13:07:20;97620.13;;;11.85;100.00
36190;BME280;22232;50.914;13.858;2023-04-28T13:09:48;97610.56;;;11.73;100.00
36190;BME280;22232;50.914;13.858;2023-04-28T13:12:15;97620.94;;;11.86;100.00
36190;BME280;22232;50.914;13.858;2023-04-28T13:14:43;97618.09;;;11.92;100.00
36190;BME280;22232;50.914;13.858;2023-04-28T13:17:10;97605.38;;;11.83;100.00
36190;BME280;22232;50.914;13.858;2023-04-28T13:19:38;97602.22;;;11.69;100.00
36190;BME280;22232;50.914;13.858;2023-04-28T13:22:06;97598.72;;;11.52;100.00
36190;BME280;22232;50.914;13.858;2023-04-28T13:24:35;97589.41;;;11.37;100.00
36190;BME280;22232;50.914;13.858;2023-04-28T13:27:03;97593.34;;;11.35;100.00